Time;durP1;ratioP1;P1;durP2;ratioP2;P2;SDS_P1;SDS_P2;PMS_P1;PMS_P2;Temp;Humidity;BMP_temperature;BMP_pressure;BME280_temperature;BME280_humidity;BME280_pressure;Samples;Min_cycle;Max_cycle;Signal;HPM_P1;HPM_P2
2022/03/08 00:01:48;;;;;;;3.88;2.60;;;20.00;44.20;;;;;;5012166;28;20030;-75
2022/03/08 00:04:14;;;;;;;4.30;2.90;;;20.00;44.10;;;;;;5011762;28;20026;-75
2022/03/08 00:06:40;;;;;;;6.18;2.65;;;20.00;44.20;;;;;;5011825;28;20101;-75
2022/03/08 00:09:06;;;;;;;5.20;3.00;;;20.00;44.20;;;;;;5013544;28;20109;-75
2022/03/08 00:11:31;;;;;;;4.30;3.05;;;20.00;44.20;;;;;;5011401;28;20025;-75
2022/03/08 00:13:57;;;;;;;4.15;2.60;;;20.00;44.30;;;;;;5011645;28;20108;-75
2022/03/08 00:16:23;;;;;;;4.57;2.75;;;20.00;44.30;;;;;;5011526;28;20041;-75
2022/03/08 00:18:49;;;;;;;4.35;2.80;;;20.00;44.80;;;;;;5012706;28;20033;-75
2022/03/08 00:21:16;;;;;;;4.32;2.70;;;20.00;44.20;;;;;;5012397;28;20041;-75
2022/03/08 00:23:43;;;;;;;3.60;2.55;;;20.00;44.30;;;;;;5012708;28;20109;-75
2022/03/08 00:26:08;;;;;;;4.25;2.70;;;20.00;44.30;;;;;;5011350;28;20077;-75
2022/03/08 00:28:34;;;;;;;3.88;2.40;;;20.00;44.40;;;;;;5012638;28;20491;-75
2022/03/08 00:31:00;;;;;;;4.38;2.85;;;20.00;44.30;;;;;;5010538;28;20053;-75
2022/03/08 00:33:27;;;;;;;4.30;2.70;;;20.00;44.20;;;;;;4995129;28;20026;-75
2022/03/08 00:35:53;;;;;;;5.43;3.10;;;20.00;44.20;;;;;;5011087;28;20124;-75
2022/03/08 00:38:20;;;;;;;4.25;2.72;;;20.00;44.20;;;;;;5012299;28;20120;-75
2022/03/08 00:40:46;;;;;;;5.10;3.03;;;20.00;44.20;;;;;;4994320;28;20464;-76
2022/03/08 00:43:14;;;;;;;4.82;3.00;;;20.00;44.20;;;;;;5012285;28;20041;-75
2022/03/08 00:45:41;;;;;;;4.45;2.88;;;20.00;44.20;;;;;;4994844;28;20030;-75
2022/03/08 00:48:07;;;;;;;5.38;3.00;;;20.00;44.20;;;;;;4994722;28;20407;-75
2022/03/08 00:50:33;;;;;;;5.03;2.80;;;20.00;44.20;;;;;;5011696;28;20036;-75
2022/03/08 00:53:00;;;;;;;3.80;2.60;;;20.00;44.10;;;;;;5011768;28;20021;-76
2022/03/08 00:55:28;;;;;;;5.80;3.20;;;20.00;44.20;;;;;;5012326;28;20131;-76
2022/03/08 00:57:54;;;;;;;3.92;2.53;;;20.00;44.20;;;;;;5012001;28;20042;-75
2022/03/08 01:00:22;;;;;;;4.80;2.65;;;20.00;44.20;;;;;;5010533;28;20030;-75
2022/03/08 01:02:49;;;;;;;3.88;2.53;;;20.00;44.30;;;;;;5010911;28;20025;-75
2022/03/08 01:05:14;;;;;;;4.63;2.67;;;20.00;44.20;;;;;;5011724;28;20340;-75
2022/03/08 01:07:41;;;;;;;3.47;2.50;;;20.00;44.30;;;;;;5010683;28;20490;-75
2022/03/08 01:10:10;;;;;;;4.10;2.70;;;20.00;44.20;;;;;;5010640;28;20395;-75
2022/03/08 01:12:36;;;;;;;;;;;20.00;44.20;;;;;;5011201;28;20034;-75
2022/03/08 01:15:05;;;;;;;3.65;2.42;;;20.00;44.20;;;;;;5010554;28;19917;-75
2022/03/08 01:17:32;;;;;;;3.55;2.45;;;20.00;44.20;;;;;;5011565;28;20470;-75
2022/03/08 01:19:58;;;;;;;3.47;2.40;;;20.00;44.20;;;;;;5010190;28;20022;-75
2022/03/08 01:22:24;;;;;;;5.50;3.10;;;19.90;44.20;;;;;;5010809;28;20030;-75
2022/03/08 01:24:50;;;;;;;3.67;2.47;;;19.90;44.20;;;;;;5011597;28;20057;-75
2022/03/08 01:27:16;;;;;;;5.68;2.92;;;20.00;44.40;;;;;;5011428;28;20088;-75
2022/03/08 01:29:42;;;;;;;3.58;2.47;;;20.00;44.30;;;;;;5010134;28;20060;-75
2022/03/08 01:32:08;;;;;;;3.67;2.63;;;19.90;44.20;;;;;;5011647;28;20049;-75
2022/03/08 01:34:34;;;;;;;4.90;2.80;;;19.90;44.30;;;;;;5010378;28;20265;-76
2022/03/08 01:37:01;;;;;;;4.13;2.63;;;20.00;44.30;;;;;;5011547;28;20053;-75
2022/03/08 01:39:27;;;;;;;3.63;2.58;;;19.90;44.30;;;;;;5009776;28;20372;-75
2022/03/08 01:41:53;;;;;;;4.10;2.55;;;19.90;44.30;;;;;;5009472;28;20105;-75
2022/03/08 01:44:19;;;;;;;5.65;3.00;;;19.90;44.30;;;;;;5010194;28;20120;-75
2022/03/08 01:46:46;;;;;;;3.70;2.60;;;19.90;44.30;;;;;;5010359;28;20041;-75
2022/03/08 01:49:11;;;;;;;4.60;2.90;;;20.00;44.30;;;;;;5010092;28;20398;-75
2022/03/08 01:51:39;;;;;;;4.63;2.92;;;20.00;44.20;;;;;;4993684;28;20032;-75
2022/03/08 01:54:06;;;;;;;4.15;2.88;;;20.00;44.20;;;;;;5010211;28;20134;-75
2022/03/08 01:56:33;;;;;;;4.22;2.88;;;20.00;44.20;;;;;;5011452;28;20549;-75
2022/03/08 01:59:03;;;;;;;3.78;2.80;;;20.00;44.20;;;;;;5011349;28;20084;-75
2022/03/08 02:01:28;;;;;;;4.15;2.72;;;20.00;44.20;;;;;;5009670;28;20034;-75
2022/03/08 02:03:54;;;;;;;4.40;2.38;;;19.90;44.20;;;;;;5011605;28;20033;-75
2022/03/08 02:06:20;;;;;;;3.50;2.50;;;19.90;44.10;;;;;;5011161;28;20557;-75
2022/03/08 02:08:46;;;;;;;5.28;3.20;;;20.00;44.20;;;;;;5011210;28;20030;-75
2022/03/08 02:11:13;;;;;;;4.25;2.70;;;20.00;44.20;;;;;;4993503;28;20593;-75
2022/03/08 02:13:39;;;;;;;3.90;2.60;;;19.90;44.10;;;;;;5010811;28;20508;-75
2022/03/08 02:16:05;;;;;;;4.43;2.88;;;20.00;44.20;;;;;;5011121;28;20097;-75
2022/03/08 02:18:32;;;;;;;3.75;2.58;;;19.90;44.10;;;;;;5011249;28;20134;-75
2022/03/08 02:21:05;;;;;;;3.45;2.53;;;19.90;44.20;;;;;;4993406;28;20379;-75
2022/03/08 02:23:31;;;;;;;3.95;2.70;;;19.90;44.20;;;;;;5009935;28;20042;-75
2022/03/08 02:25:57;;;;;;;4.75;2.72;;;19.90;44.20;;;;;;4993760;28;20036;-75
2022/03/08 02:28:23;;;;;;;4.28;2.70;;;19.90;44.20;;;;;;5009712;28;20068;-75
2022/03/08 02:30:48;;;;;;;4.43;2.70;;;19.90;44.10;;;;;;5010829;28;20058;-75
2022/03/08 02:33:14;;;;;;;3.72;2.40;;;19.90;44.10;;;;;;5011196;28;20049;-75
2022/03/08 02:35:40;;;;;;;3.72;2.58;;;19.90;44.20;;;;;;5010052;28;20040;-75
2022/03/08 02:38:06;;;;;;;3.92;2.75;;;19.90;44.10;;;;;;5011277;28;20054;-75
2022/03/08 02:40:35;;;;;;;3.88;2.63;;;19.90;44.10;;;;;;5009705;28;20042;-75
2022/03/08 02:43:01;;;;;;;4.40;2.92;;;19.90;44.20;;;;;;5010956;28;20105;-75
2022/03/08 02:45:27;;;;;;;4.45;2.55;;;19.90;44.20;;;;;;5010052;28;20121;-75
2022/03/08 02:47:53;;;;;;;3.20;2.20;;;19.90;44.10;;;;;;5011070;28;20526;-75
2022/03/08 02:50:20;;;;;;;3.97;2.55;;;19.90;44.20;;;;;;5010847;28;20475;-75
2022/03/08 02:52:51;;;;;;;4.05;2.60;;;19.90;44.20;;;;;;5010125;28;20471;-75
2022/03/08 02:55:21;;;;;;;3.00;2.40;;;19.90;44.20;;;;;;4997728;28;20084;-75
2022/03/08 02:57:48;;;;;;;4.63;2.75;;;19.90;44.10;;;;;;5024244;23;20512;-75
2022/03/08 03:00:16;;;;;;;2.95;2.17;;;19.90;44.80;;;;;;4993366;28;20110;-75
2022/03/08 03:02:42;;;;;;;4.20;2.60;;;19.90;44.00;;;;;;4994468;28;20464;-75
2022/03/08 03:05:08;;;;;;;4.50;2.58;;;19.90;44.10;;;;;;4994749;28;20026;-75
2022/03/08 03:07:34;;;;;;;3.83;2.63;;;19.90;44.00;;;;;;4993346;28;20041;-75
2022/03/08 03:10:01;;;;;;;3.60;2.55;;;19.90;44.00;;;;;;4994165;28;20022;-75
2022/03/08 03:12:27;;;;;;;5.40;2.80;;;19.90;44.00;;;;;;4976947;28;20423;-75
2022/03/08 03:14:53;;;;;;;3.58;2.50;;;19.90;44.60;;;;;;4993207;28;20045;-75
2022/03/08 03:17:18;;;;;;;3.15;2.15;;;19.90;44.00;;;;;;4993431;28;20022;-75
2022/03/08 03:19:44;;;;;;;6.10;2.75;;;19.90;44.00;;;;;;4994175;28;20499;-75
2022/03/08 03:22:10;;;;;;;4.10;2.78;;;19.90;44.10;;;;;;4994297;28;20115;-75
2022/03/08 03:24:36;;;;;;;4.63;3.00;;;19.90;44.00;;;;;;4992750;28;20119;-75
2022/03/08 03:27:02;;;;;;;3.97;2.65;;;19.90;44.10;;;;;;4994224;28;20026;-75
2022/03/08 03:29:27;;;;;;;3.95;2.40;;;19.90;44.10;;;;;;4992606;28;20361;-75
2022/03/08 03:31:53;;;;;;;4.35;2.67;;;19.90;44.10;;;;;;4994069;28;20034;-75
2022/03/08 03:34:19;;;;;;;5.63;2.85;;;19.90;44.10;;;;;;4993106;28;20031;-75
2022/03/08 03:36:44;;;;;;;3.65;2.55;;;19.90;44.10;;;;;;4994096;28;20069;-75
2022/03/08 03:39:10;;;;;;;3.60;2.50;;;19.90;44.10;;;;;;4993782;28;20395;-75
2022/03/08 03:41:36;;;;;;;4.50;2.58;;;19.90;44.20;;;;;;4992698;28;20030;-75
2022/03/08 03:44:02;;;;;;;4.10;2.65;;;19.90;44.20;;;;;;4993983;28;20105;-75
2022/03/08 03:46:28;;;;;;;4.82;2.33;;;19.90;44.80;;;;;;4993624;28;20026;-76
2022/03/08 03:48:54;;;;;;;4.68;2.60;;;19.90;44.20;;;;;;4976523;28;20056;-75
2022/03/08 03:51:20;;;;;;;3.92;2.50;;;19.90;44.20;;;;;;4993416;28;20026;-76
2022/03/08 03:53:46;;;;;;;4.03;2.70;;;19.90;44.20;;;;;;4993696;28;20387;-75
2022/03/08 03:56:11;;;;;;;4.07;2.42;;;19.90;44.20;;;;;;4992534;28;20054;-75
2022/03/08 03:58:37;;;;;;;4.07;2.60;;;19.90;44.10;;;;;;4993808;28;20073;-76
2022/03/08 04:01:04;;;;;;;3.88;2.50;;;19.90;44.20;;;;;;4993222;28;20030;-76
2022/03/08 04:03:30;;;;;;;4.40;2.63;;;19.90;44.20;;;;;;4993661;28;20109;-75
2022/03/08 04:05:56;;;;;;;3.17;2.55;;;19.90;44.20;;;;;;4992662;28;20439;-75
2022/03/08 04:08:22;;;;;;;3.60;2.40;;;19.90;44.20;;;;;;4993290;28;20538;-75
2022/03/08 04:10:48;;;;;;;5.18;2.60;;;19.90;44.80;;;;;;4991878;28;20121;-75
2022/03/08 04:13:15;;;;;;;3.00;2.20;;;19.90;44.20;;;;;;4993475;28;20068;-75
2022/03/08 04:15:42;;;;;;;5.00;2.72;;;19.90;44.20;;;;;;4975956;28;20038;-75
2022/03/08 04:18:08;;;;;;;3.50;2.47;;;19.90;44.20;;;;;;4992298;28;20081;-75
2022/03/08 04:20:34;;;;;;;4.68;2.80;;;19.90;44.20;;;;;;4976058;28;20108;-75
2022/03/08 04:22:59;;;;;;;4.80;2.60;;;19.90;44.20;;;;;;4993123;28;20508;-75
2022/03/08 04:25:25;;;;;;;3.60;2.47;;;19.90;44.10;;;;;;4993102;28;20125;-75
2022/03/08 04:27:51;;;;;;;3.35;2.22;;;19.90;44.20;;;;;;4992760;28;20023;-75
2022/03/08 04:30:17;;;;;;;3.30;2.40;;;19.90;44.20;;;;;;4991641;28;20022;-75
2022/03/08 04:32:43;;;;;;;3.72;2.55;;;19.90;44.20;;;;;;4993161;28;20480;-75
2022/03/08 04:35:09;;;;;;;4.18;2.58;;;19.90;44.20;;;;;;4993295;28;20109;-75
2022/03/08 04:37:35;;;;;;;4.22;2.70;;;19.90;44.30;;;;;;4992789;28;20034;-75
2022/03/08 04:40:04;;;;;;;3.28;2.35;;;19.90;44.30;;;;;;4991477;28;20048;-75
2022/03/08 04:42:29;;;;;;;3.70;2.53;;;19.90;44.20;;;;;;4992666;28;20093;-75
2022/03/08 04:44:55;;;;;;;3.85;2.30;;;19.90;44.30;;;;;;4975571;28;20022;-75
2022/03/08 04:47:21;;;;;;;4.25;2.85;;;19.90;44.30;;;;;;4992540;28;20018;-75
2022/03/08 04:49:46;;;;;;;3.42;2.50;;;19.90;44.30;;;;;;4991288;28;20146;-75
2022/03/08 04:52:12;;;;;;;3.67;2.42;;;19.90;44.30;;;;;;4975431;28;20093;-75
2022/03/08 04:54:38;;;;;;;3.55;2.45;;;19.90;44.30;;;;;;4991613;28;20066;-75
2022/03/08 04:57:04;;;;;;;4.55;2.70;;;19.90;44.30;;;;;;4992452;28;20024;-75
2022/03/08 04:59:29;;;;;;;3.83;2.50;;;19.90;44.30;;;;;;4992466;28;20034;-75
2022/03/08 05:01:55;;;;;;;5.32;2.67;;;19.90;44.30;;;;;;4992408;28;20487;-75
2022/03/08 05:04:21;;;;;;;3.95;2.42;;;19.90;44.30;;;;;;4992960;28;20018;-75
2022/03/08 05:06:47;;;;;;;3.05;2.20;;;19.90;44.40;;;;;;4991015;28;20034;-75
2022/03/08 05:09:13;;;;;;;4.00;2.60;;;19.90;44.40;;;;;;4992238;28;20391;-75
2022/03/08 05:11:39;;;;;;;3.63;2.65;;;19.90;44.30;;;;;;4990888;28;20388;-75
2022/03/08 05:14:05;;;;;;;4.13;2.60;;;19.90;44.30;;;;;;4992417;28;20018;-76
2022/03/08 05:16:31;;;;;;;3.72;2.60;;;19.90;44.30;;;;;;4990842;28;20482;-76
2022/03/08 05:18:57;;;;;;;3.80;2.30;;;19.90;44.40;;;;;;4992329;28;20168;-76
2022/03/08 05:21:23;;;;;;;3.95;2.53;;;19.90;44.30;;;;;;4990801;28;20030;-76
2022/03/08 05:23:49;;;;;;;3.38;2.53;;;19.90;44.30;;;;;;4992185;28;20030;-76
2022/03/08 05:26:15;;;;;;;4.15;2.67;;;19.90;44.30;;;;;;4991056;28;20030;-76
2022/03/08 05:28:44;;;;;;;3.72;2.45;;;19.90;44.30;;;;;;4992256;28;20391;-76
2022/03/08 05:31:13;;;;;;;3.88;2.63;;;19.90;44.30;;;;;;4991937;28;20038;-76
2022/03/08 05:33:40;;;;;;;3.25;2.40;;;19.90;44.30;;;;;;4991990;28;20117;-76
2022/03/08 05:36:06;;;;;;;5.22;2.80;;;19.90;44.20;;;;;;4992160;28;20042;-76
2022/03/08 05:38:31;;;;;;;4.15;2.55;;;19.90;44.30;;;;;;4992149;28;20085;-76
2022/03/08 05:40:57;;;;;;;3.70;2.40;;;19.90;44.30;;;;;;4991883;28;20437;-76
2022/03/08 05:43:23;;;;;;;4.78;2.60;;;19.90;44.30;;;;;;4991871;28;20058;-76
2022/03/08 05:45:49;;;;;;;3.95;2.38;;;19.90;44.30;;;;;;4991984;28;20058;-76
2022/03/08 05:48:15;;;;;;;4.53;2.70;;;19.90;44.30;;;;;;4991876;28;20022;-76
2022/03/08 05:50:40;;;;;;;3.60;2.60;;;19.90;44.30;;;;;;4991585;28;20030;-76
2022/03/08 05:53:06;;;;;;;4.18;2.60;;;19.90;44.30;;;;;;4991013;28;20439;-76
2022/03/08 05:55:32;;;;;;;3.95;2.70;;;19.90;44.30;;;;;;4991998;28;20030;-76
2022/03/08 05:57:58;;;;;;;3.78;2.50;;;19.80;44.30;;;;;;4991751;28;20085;-76
2022/03/08 06:00:24;;;;;;;3.83;2.50;;;19.90;44.40;;;;;;4991831;28;20054;-76
2022/03/08 06:02:49;;;;;;;4.13;2.65;;;19.80;44.30;;;;;;5265249;23;20054;-75
2022/03/08 06:05:15;;;;;;;3.85;2.40;;;19.80;44.30;;;;;;4992232;28;20061;-76
2022/03/08 06:07:41;;;;;;;3.95;2.58;;;19.90;44.40;;;;;;4993183;28;20442;-76
2022/03/08 06:10:08;;;;;;;4.13;2.67;;;19.90;44.40;;;;;;5009973;28;20030;-76
2022/03/08 06:12:35;;;;;;;3.80;2.78;;;19.80;44.20;;;;;;5009518;28;20022;-76
2022/03/08 06:15:00;;;;;;;3.42;2.35;;;19.90;44.30;;;;;;5011259;28;20033;-75
2022/03/08 06:17:26;;;;;;;4.25;2.72;;;19.90;44.50;;;;;;5010064;28;20038;-76
2022/03/08 06:19:52;;;;;;;5.03;2.83;;;19.90;44.40;;;;;;4993237;28;20489;-76
2022/03/08 06:22:17;;;;;;;4.72;2.60;;;19.90;44.40;;;;;;5011074;28;20026;-76
2022/03/08 06:24:43;;;;;;;4.10;2.38;;;19.90;44.30;;;;;;5011251;28;20436;-77
2022/03/08 06:27:09;;;;;;;3.40;2.33;;;19.90;44.60;;;;;;5011287;28;20041;-77
2022/03/08 06:29:35;;;;;;;3.80;2.80;;;19.90;44.40;;;;;;5014010;28;20096;-76
2022/03/08 06:32:00;;;;;;;4.20;2.75;;;19.90;44.40;;;;;;5014763;28;20079;-76
2022/03/08 06:34:26;;;;;;;5.18;2.55;;;19.90;44.40;;;;;;5013475;28;20030;-76
2022/03/08 06:36:52;;;;;;;4.88;3.05;;;19.90;44.40;;;;;;5014326;28;20504;-76
2022/03/08 06:39:18;;;;;;;3.67;2.80;;;19.90;44.40;;;;;;5013219;28;20108;-76
2022/03/08 06:41:44;;;;;;;3.90;2.63;;;19.90;44.30;;;;;;5013459;28;20540;-76
2022/03/08 06:44:10;;;;;;;4.72;2.80;;;19.90;44.30;;;;;;5014493;28;20025;-76
2022/03/08 06:46:37;;;;;;;3.83;2.60;;;19.90;44.40;;;;;;5014504;28;20096;-76
2022/03/08 06:49:03;;;;;;;4.43;2.60;;;19.90;44.40;;;;;;5013058;28;20085;-76
2022/03/08 06:51:28;;;;;;;5.15;2.70;;;19.90;44.40;;;;;;5014275;28;20029;-76
2022/03/08 06:53:54;;;;;;;4.07;2.78;;;19.90;44.30;;;;;;5013362;28;20562;-76
2022/03/08 06:56:20;;;;;;;3.35;2.83;;;19.90;44.30;;;;;;5014437;28;20465;-77
2022/03/08 06:58:46;;;;;;;4.53;2.75;;;19.90;44.40;;;;;;5014278;28;20096;-76
2022/03/08 07:01:11;;;;;;;4.03;2.63;;;19.90;44.30;;;;;;5013168;28;20029;-77
2022/03/08 07:03:37;;;;;;;3.95;2.80;;;19.90;44.30;;;;;;5013048;28;20062;-76
2022/03/08 07:06:05;;;;;;;4.47;2.70;;;19.90;44.30;;;;;;5014191;28;20521;-77
2022/03/08 07:08:31;;;;;;;4.05;2.85;;;19.90;44.30;;;;;;5014017;28;20442;-76
2022/03/08 07:10:57;;;;;;;4.70;3.10;;;19.90;44.30;;;;;;5013904;28;20112;-76
2022/03/08 07:13:23;;;;;;;4.00;2.70;;;19.90;44.20;;;;;;5012803;28;20037;-76
2022/03/08 07:15:49;;;;;;;4.32;3.00;;;19.90;44.20;;;;;;4996919;28;20042;-76
2022/03/08 07:18:14;;;;;;;4.53;2.95;;;19.90;44.10;;;;;;5013827;28;20525;-76
2022/03/08 07:20:40;;;;;;;4.80;2.80;;;19.90;44.10;;;;;;5012509;28;20036;-77
2022/03/08 07:23:06;;;;;;;3.38;2.40;;;19.90;44.10;;;;;;5014483;28;20033;-77
2022/03/08 07:25:32;;;;;;;3.85;2.60;;;20.00;44.20;;;;;;5012618;28;20106;-76
2022/03/08 07:27:57;;;;;;;4.68;2.95;;;20.00;44.20;;;;;;5012559;28;20034;-77
2022/03/08 07:30:23;;;;;;;3.75;2.50;;;20.00;44.10;;;;;;5012060;28;20101;-77
2022/03/08 07:32:51;;;;;;;5.55;2.83;;;20.00;44.10;;;;;;5013558;28;20037;-76
2022/03/08 07:35:17;;;;;;;3.47;2.60;;;20.00;44.10;;;;;;5013579;28;20522;-77
2022/03/08 07:37:43;;;;;;;4.85;2.80;;;20.00;44.10;;;;;;5013686;28;20117;-76
2022/03/08 07:40:09;;;;;;;4.55;2.58;;;20.00;44.00;;;;;;5013083;28;20045;-76
2022/03/08 07:42:35;;;;;;;5.30;3.05;;;20.00;44.30;;;;;;5012519;28;20057;-76
2022/03/08 07:45:01;;;;;;;5.20;2.75;;;20.10;44.10;;;;;;5013192;28;20025;-76
2022/03/08 07:47:27;;;;;;;5.10;3.00;;;20.00;44.00;;;;;;4995921;28;20029;-76
2022/03/08 07:49:53;;;;;;;4.75;2.85;;;20.10;44.10;;;;;;5012833;28;20105;-76
2022/03/08 07:52:19;;;;;;;4.97;2.67;;;20.10;44.20;;;;;;5012310;28;20026;-76
2022/03/08 07:54:44;;;;;;;3.85;2.50;;;20.10;44.20;;;;;;5013183;28;20032;-76
2022/03/08 07:57:10;;;;;;;4.15;2.60;;;20.10;44.50;;;;;;5012321;28;20064;-76
2022/03/08 07:59:36;;;;;;;3.97;2.88;;;20.10;44.70;;;;;;5012586;28;20021;-76
2022/03/08 08:02:02;;;;;;;2.72;2.30;;;20.10;44.70;;;;;;5013282;28;20026;-76
2022/03/08 08:04:29;;;;;;;3.80;2.40;;;20.10;45.40;;;;;;5011770;28;20041;-76
2022/03/08 08:06:55;;;;;;;3.72;2.50;;;20.20;45.70;;;;;;5013077;28;20189;-76
2022/03/08 08:09:21;;;;;;;4.57;2.45;;;20.20;45.20;;;;;;4995163;28;20093;-76
2022/03/08 08:11:46;;;;;;;3.33;2.35;;;20.20;45.30;;;;;;5012869;28;20068;-76
2022/03/08 08:14:13;;;;;;;3.88;2.47;;;20.20;45.30;;;;;;5012365;28;20506;-76
2022/03/08 08:16:38;;;;;;;4.07;2.70;;;20.20;45.30;;;;;;5013014;28;20048;-76
2022/03/08 08:19:04;;;;;;;4.85;2.78;;;20.20;45.30;;;;;;5011327;28;20489;-76
2022/03/08 08:21:30;;;;;;;3.80;2.40;;;20.20;45.40;;;;;;5012628;28;20034;-76
2022/03/08 08:23:56;;;;;;;4.53;2.70;;;20.30;45.50;;;;;;5012765;28;20401;-76
2022/03/08 08:26:22;;;;;;;4.13;2.65;;;20.30;45.50;;;;;;5011480;28;20036;-76
2022/03/08 08:28:48;;;;;;;4.30;2.60;;;20.30;45.50;;;;;;4995146;28;20046;-76
2022/03/08 08:31:13;;;;;;;3.95;2.50;;;20.30;45.50;;;;;;5011089;28;20060;-76
2022/03/08 08:33:39;;;;;;;4.88;2.47;;;20.30;45.60;;;;;;5012601;28;20030;-76
2022/03/08 08:36:05;;;;;;;4.30;2.70;;;20.30;45.50;;;;;;5011279;28;20021;-76
2022/03/08 08:38:32;;;;;;;4.20;2.70;;;20.30;45.70;;;;;;5012325;28;20073;-76
2022/03/08 08:40:58;;;;;;;4.10;2.78;;;20.30;45.60;;;;;;5012115;28;20105;-76
2022/03/08 08:43:24;;;;;;;3.55;2.40;;;20.30;45.60;;;;;;5012451;28;20101;-76
2022/03/08 08:45:52;;;;;;;4.85;2.88;;;20.30;45.60;;;;;;5010950;28;20034;-76
2022/03/08 08:48:20;;;;;;;4.05;2.60;;;20.30;45.70;;;;;;5012330;28;20437;-76
2022/03/08 08:50:46;;;;;;;4.88;2.78;;;20.30;45.60;;;;;;5011514;28;20022;-75
2022/03/08 08:53:12;;;;;;;3.67;2.50;;;20.40;45.60;;;;;;5012315;28;20040;-75
2022/03/08 08:55:38;;;;;;;4.35;2.70;;;20.40;45.60;;;;;;4996387;28;20037;-74
2022/03/08 08:58:05;;;;;;;3.60;2.47;;;20.40;45.60;;;;;;4995688;28;20034;-75
2022/03/08 09:00:31;;;;;;;5.45;2.85;;;20.40;46.20;;;;;;5011839;28;20034;-76
2022/03/08 09:02:57;;;;;;;3.60;2.42;;;20.40;45.60;;;;;;5012186;28;20041;-76
2022/03/08 09:05:23;;;;;;;4.15;2.35;;;20.40;45.60;;;;;;5011902;28;20058;-75
2022/03/08 09:07:49;;;;;;;3.95;2.30;;;20.40;45.60;;;;;;4994594;28;20065;-75
2022/03/08 09:10:16;;;;;;;3.45;2.60;;;20.40;45.70;;;;;;5011611;28;20025;-75
2022/03/08 09:12:49;;;;;;;3.70;2.47;;;20.50;45.70;;;;;;5011935;28;20045;-75
2022/03/08 09:15:16;;;;;;;3.58;2.47;;;20.40;45.70;;;;;;5011710;28;20470;-75
2022/03/08 09:17:42;;;;;;;4.35;2.42;;;20.50;45.70;;;;;;4994319;28;20036;-75
2022/03/08 09:20:08;;;;;;;3.90;2.40;;;20.50;45.70;;;;;;5010432;28;20038;-75
2022/03/08 09:22:34;;;;;;;4.22;2.47;;;20.50;45.70;;;;;;5010498;28;20029;-75
2022/03/08 09:25:00;;;;;;;4.25;2.40;;;20.50;45.70;;;;;;5011744;28;20375;-75
2022/03/08 09:27:25;;;;;;;4.00;2.50;;;20.50;45.70;;;;;;5011737;28;20026;-75
2022/03/08 09:29:51;;;;;;;3.55;2.50;;;20.50;45.70;;;;;;5011318;28;20474;-75
2022/03/08 09:32:17;;;;;;;2.95;2.33;;;20.50;45.60;;;;;;5011655;28;20026;-75
2022/03/08 09:34:43;;;;;;;3.85;2.50;;;20.50;45.60;;;;;;5011551;28;20026;-75
2022/03/08 09:37:09;;;;;;;4.05;2.60;;;20.50;45.60;;;;;;4994245;28;20523;-75
2022/03/08 09:39:36;;;;;;;4.72;2.45;;;20.50;45.60;;;;;;4993601;28;20101;-75
2022/03/08 09:42:03;;;;;;;4.03;2.40;;;20.60;45.70;;;;;;5011611;28;20041;-75
2022/03/08 09:44:29;;;;;;;3.58;2.30;;;20.50;45.60;;;;;;5011548;28;20334;-75
2022/03/08 09:46:55;;;;;;;4.82;2.80;;;20.50;45.70;;;;;;5011301;28;20034;-75
2022/03/08 09:49:21;;;;;;;3.58;2.30;;;20.50;45.60;;;;;;5009592;28;20026;-75
2022/03/08 09:51:47;;;;;;;4.03;2.63;;;20.50;45.60;;;;;;5010077;28;20033;-75
2022/03/08 09:54:14;;;;;;;4.25;2.70;;;20.50;45.60;;;;;;5011428;28;20116;-75
2022/03/08 09:56:40;;;;;;;3.33;2.22;;;20.50;45.60;;;;;;5011407;28;20184;-75
2022/03/08 09:59:05;;;;;;;4.15;2.42;;;20.50;45.70;;;;;;4993794;28;20557;-75
2022/03/08 10:01:31;;;;;;;2.97;2.20;;;20.50;45.70;;;;;;5010911;28;20026;-75
2022/03/08 10:03:57;;;;;;;3.40;2.30;;;20.50;45.70;;;;;;5013848;28;20084;-75
2022/03/08 10:06:37;;;;;;;3.58;2.42;;;20.40;45.70;;;;;;5015657;28;20030;-75
2022/03/08 10:09:16;;;;;;;3.67;2.17;;;20.50;45.70;;;;;;5015097;28;20048;-74
2022/03/08 10:11:43;;;;;;;3.85;2.50;;;20.40;45.60;;;;;;5015132;28;20097;-74
2022/03/08 10:14:26;;;;;;;3.33;2.28;;;20.40;45.60;;;;;;5015041;28;20030;-75
2022/03/08 10:16:52;;;;;;;3.53;2.58;;;20.40;45.60;;;;;;5015666;28;20026;-75
2022/03/08 10:19:19;;;;;;;4.90;2.85;;;20.50;45.70;;;;;;5013581;28;20037;-75
2022/03/08 10:21:54;;;;;;;3.75;2.28;;;20.50;45.70;;;;;;5013812;28;20548;-74
2022/03/08 10:24:26;;;;;;;3.70;2.40;;;20.50;45.70;;;;;;5014091;28;20474;-76
2022/03/08 10:27:01;;;;;;;4.22;2.40;;;20.50;45.80;;;;;;5013743;28;20036;-75
2022/03/08 10:29:38;;;;;;;4.47;2.40;;;20.50;45.60;;;;;;5014762;28;20032;-74
2022/03/08 10:32:17;;;;;;;3.50;2.53;;;20.50;45.70;;;;;;5015012;28;20030;-75
2022/03/08 10:34:44;;;;;;;3.78;2.20;;;20.50;45.80;;;;;;5014999;28;20024;-75
2022/03/08 10:37:17;;;;;;;3.83;2.42;;;20.50;45.80;;;;;;5014879;28;20498;-75
2022/03/08 10:39:55;;;;;;;3.20;2.20;;;20.50;45.80;;;;;;5014311;28;20030;-75
2022/03/08 10:42:26;;;;;;;4.28;2.40;;;20.50;45.90;;;;;;4997116;28;20034;-75
2022/03/08 10:45:01;;;;;;;3.78;2.58;;;20.50;45.90;;;;;;5014260;28;20026;-75
2022/03/08 10:47:26;;;;;;;4.25;2.50;;;20.50;45.90;;;;;;5014372;28;20374;-75
2022/03/08 10:49:57;;;;;;;2.85;2.10;;;20.50;45.90;;;;;;5012897;28;20040;-75
2022/03/08 10:52:32;;;;;;;4.00;2.50;;;20.50;45.80;;;;;;5013059;28;20104;-75
2022/03/08 10:55:20;;;;;;;5.28;2.55;;;20.50;45.80;;;;;;5013431;28;20054;-75
2022/03/08 10:57:54;;;;;;;4.07;2.40;;;20.50;45.80;;;;;;5014479;28;20120;-75
2022/03/08 11:00:23;;;;;;;3.35;2.15;;;20.50;45.80;;;;;;5012770;28;20046;-75
2022/03/08 11:03:03;;;;;;;4.35;2.67;;;20.50;45.80;;;;;;4996566;28;20038;-75
2022/03/08 11:05:32;;;;;;;2.92;2.15;;;20.50;45.80;;;;;;5014080;28;20111;-75
2022/03/08 11:07:58;;;;;;;3.72;2.30;;;20.50;45.80;;;;;;5014223;28;20161;-75
2022/03/08 11:10:26;;;;;;;4.22;2.47;;;20.50;45.80;;;;;;5012443;28;20022;-75
2022/03/08 11:12:52;;;;;;;2.72;2.10;;;20.40;45.80;;;;;;5013019;28;20022;-75
2022/03/08 11:15:19;;;;;;;4.03;2.40;;;20.50;45.80;;;;;;5012540;28;20025;-75
2022/03/08 11:17:50;;;;;;;3.42;2.30;;;20.40;45.70;;;;;;5014045;28;20141;-75
2022/03/08 11:20:18;;;;;;;4.03;2.38;;;20.40;45.70;;;;;;4996127;28;20500;-75
2022/03/08 11:22:46;;;;;;;3.33;2.30;;;20.40;45.70;;;;;;5012763;28;20088;-74
2022/03/08 11:25:16;;;;;;;3.95;2.08;;;20.40;45.80;;;;;;5012588;28;20033;-74
2022/03/08 11:27:44;;;;;;;3.60;2.30;;;20.40;45.80;;;;;;5013785;28;20025;-74
2022/03/08 11:30:14;;;;;;;3.45;2.30;;;20.40;45.80;;;;;;5013541;28;20485;-74
2022/03/08 11:33:08;;;;;;;3.15;2.22;;;20.40;45.80;;;;;;5013658;28;20474;-74
2022/03/08 11:35:53;;;;;;;5.38;2.33;;;20.50;46.00;;;;;;5013611;28;20044;-74
2022/03/08 11:38:19;;;;;;;2.97;2.05;;;20.50;45.90;;;;;;5013762;28;20041;-74
2022/03/08 11:40:57;;;;;;;3.28;2.30;;;20.50;45.90;;;;;;5011979;28;20029;-74
2022/03/08 11:43:45;;;;;;;2.85;2.13;;;20.50;45.80;;;;;;4996164;28;20034;-74
2022/03/08 11:46:19;;;;;;;4.15;2.25;;;20.50;45.80;;;;;;5013419;28;20180;-74
2022/03/08 11:49:03;;;;;;;3.83;2.50;;;20.50;45.90;;;;;;5013773;28;20022;-74
2022/03/08 11:51:31;;;;;;;4.47;2.38;;;20.50;45.90;;;;;;4995555;28;20048;-74
2022/03/08 11:54:09;;;;;;;4.28;2.42;;;20.40;45.90;;;;;;5013446;28;20486;-74
2022/03/08 11:56:46;;;;;;;3.00;2.10;;;20.40;45.90;;;;;;4995959;28;20033;-74
2022/03/08 11:59:12;;;;;;;3.53;2.33;;;20.40;45.90;;;;;;5012988;28;20026;-75
2022/03/08 12:01:38;;;;;;;4.18;2.40;;;20.40;45.90;;;;;;5013278;28;20091;-75
2022/03/08 12:04:12;;;;;;;2.97;2.20;;;20.40;45.90;;;;;;5011787;28;20042;-75
2022/03/08 12:06:40;;;;;;;4.57;2.47;;;20.40;45.90;;;;;;5012347;28;20375;-75
2022/03/08 12:09:21;;;;;;;4.28;2.10;;;20.50;46.00;;;;;;5011853;28;20482;-75
2022/03/08 12:11:50;;;;;;;3.08;2.10;;;20.40;45.90;;;;;;5012636;28;20524;-75
2022/03/08 12:14:22;;;;;;;3.22;2.35;;;20.40;46.00;;;;;;5012923;28;20021;-75
2022/03/08 12:16:51;;;;;;;3.58;2.30;;;20.40;46.60;;;;;;5011782;28;20474;-75
2022/03/08 12:19:38;;;;;;;3.25;2.38;;;20.50;46.00;;;;;;5011898;23;20042;-75
2022/03/08 12:22:10;;;;;;;3.13;2.10;;;20.50;46.00;;;;;;4992827;28;20502;-75
2022/03/08 12:24:56;;;;;;;3.35;2.20;;;20.40;46.60;;;;;;4993176;28;20025;-76
2022/03/08 12:27:24;;;;;;;4.07;2.30;;;20.40;45.90;;;;;;4991620;28;20050;-76
2022/03/08 12:29:52;;;;;;;3.40;2.08;;;20.40;45.90;;;;;;4975588;28;20042;-76
2022/03/08 12:32:34;;;;;;;3.10;2.10;;;20.40;45.90;;;;;;4991565;28;20501;-76
2022/03/08 12:35:04;;;;;;;2.65;2.10;;;20.40;45.90;;;;;;4991920;28;20022;-75
2022/03/08 12:37:54;;;;;;;2.88;2.13;;;20.40;45.90;;;;;;4991743;28;20031;-75
2022/03/08 12:40:32;;;;;;;3.63;2.17;;;20.40;45.90;;;;;;4993133;28;20026;-76
2022/03/08 12:43:08;;;;;;;3.20;2.15;;;20.40;45.80;;;;;;4992975;28;20085;-75
2022/03/08 12:45:43;;;;;;;4.45;2.22;;;20.40;45.80;;;;;;4991698;28;20073;-76
2022/03/08 12:48:10;;;;;;;3.22;1.95;;;20.40;45.80;;;;;;4992490;28;20541;-76
2022/03/08 12:50:39;;;;;;;3.30;1.95;;;20.40;45.80;;;;;;4993165;28;20378;-76